CheckWX is a tool to help pilots better visualize weather data.  It is not intended as a substitute for an official pre-flight weather briefing.

17:27:06 UTC

OIAA TAF
Abadan Airport
Abadan, Iran
TAF OIAA 241100Z 2412/2518 12012KT 7000 FEW035CB SCT040 BKN100 TEMPO 2412/2415 14018G28KT 3000 TS/SHRA SA SCT035CB SCT040 OVC100 BECMG 2420/2422 14016KT 4000 TSRA BR FEW035CB SCT040 BKN100 TEMPO 2500/2510 16020G30KT 1500 TSRA SA SCT030CB SCT035 OVC090 BECMG 2516/2518 14010KT 2000 TSRA BR FEW030 SCT100

Mar-24@
12:00 UTC

Mar-24 @ 12:00 UTC

Mar-24@
20:00 UTC

Mar-24 @ 20:00 UTC

TAF OIAA 241100Z 2412/2518 12012KT 7000 FEW035CB SCT040 BKN100
Wind
  • 120° at 12 KTS
Cloud Levels
  • Few at 3,500' AGL
  • Scattered at 4,000' AGL
  • Broken at 10,000' AGL

Mar-24@
12:00 UTC

Mar-24 @ 12:00 UTC

Mar-24@
15:00 UTC

Mar-24 @ 15:00 UTC

TEMPO 2412/2415 14018G28KT 3000 TS/SHRA SA SCT035CB SCT040 OVC100

Expired

Wind
  • 140° at 18 KTS
  • {Gusting to 28 KTS
Conditions
Rain, Thunderstorm, Sand
Cloud Levels
  • Scattered at 3,500' AGL
  • Scattered at 4,000' AGL
  • Overcast at 10,000' AGL

Mar-24@
20:00 UTC

Mar-24 @ 20:00 UTC

Mar-25@
16:00 UTC

Mar-25 @ 16:00 UTC

BECMG 2420/2422 14016KT 4000 TSRA BR FEW035CB SCT040 BKN100

Becoming

Becoming Conditions expected by Sun, Mar 24, 2019 @ 22:00 UTC

Wind
  • 140° at 16 KTS
Conditions
Thunderstorm, Rain, Mist
Cloud Levels
  • Few at 3,500' AGL
  • Scattered at 4,000' AGL
  • Broken at 10,000' AGL

Mar-25@
00:00 UTC

Mar-25 @ 00:00 UTC

Mar-25@
10:00 UTC

Mar-25 @ 10:00 UTC

TEMPO 2500/2510 16020G30KT 1500 TSRA SA SCT030CB SCT035 OVC090

Temporary

Temporary Changes expected for less than half the time period

Wind
  • 160° at 20 KTS
  • {Gusting to 30 KTS
Conditions
Thunderstorm, Rain, Sand
Cloud Levels
  • Scattered at 3,000' AGL
  • Scattered at 3,500' AGL
  • Overcast at 9,000' AGL

Mar-25@
16:00 UTC

Mar-25 @ 16:00 UTC

Mar-25@
18:00 UTC

Mar-25 @ 18:00 UTC

BECMG 2516/2518 14010KT 2000 TSRA BR FEW030 SCT100

Becoming

Becoming Conditions expected by Mon, Mar 25, 2019 @ 18:00 UTC

Wind
  • 140° at 10 KTS
Conditions
Thunderstorm, Rain, Mist
Cloud Levels
  • Few at 3,000' AGL
  • Scattered at 10,000' AGL